Time;durP1;ratioP1;P1;durP2;ratioP2;P2;SDS_P1;SDS_P2;PMS_P1;PMS_P2;Temp;Humidity;BMP_temperature;BMP_pressure;BME280_temperature;BME280_humidity;BME280_pressure;Samples;Min_cycle;Max_cycle;Signal;HPM_P1;HPM_P2
2020/12/31 00:00:05;;;;;;;8.70;5.10;;;3.20;86.10;;;;;;5113444;28;20412;-83
2020/12/31 00:02:31;;;;;;;8.93;5.45;;;3.20;86.40;;;;;;5113056;28;20372;-82
2020/12/31 00:04:56;;;;;;;13.57;5.43;;;3.30;85.80;;;;;;5113396;28;20373;-82
2020/12/31 00:07:22;;;;;;;11.95;5.60;;;3.20;86.10;;;;;;5110905;28;20381;-83
2020/12/31 00:09:48;;;;;;;9.27;5.43;;;3.30;85.60;;;;;;5113215;28;20380;-82
2020/12/31 00:12:13;;;;;;;9.52;5.25;;;3.30;85.60;;;;;;5113240;28;20468;-82
2020/12/31 00:14:39;;;;;;;10.38;5.18;;;3.20;85.90;;;;;;5112196;28;20694;-82
2020/12/31 00:17:05;;;;;;;10.95;4.97;;;3.30;85.50;;;;;;5112033;28;20841;-82
2020/12/31 00:19:30;;;;;;;9.13;5.10;;;3.20;86.30;;;;;;5112865;28;20400;-83
2020/12/31 00:21:56;;;;;;;11.90;5.93;;;3.30;85.40;;;;;;5112553;28;20404;-83
2020/12/31 00:24:22;;;;;;;9.27;5.20;;;3.20;86.20;;;;;;5112904;28;20868;-82
2020/12/31 00:26:47;;;;;;;10.40;5.13;;;3.20;85.90;;;;;;5112773;28;20377;-82
2020/12/31 00:29:13;;;;;;;10.77;5.57;;;3.20;85.80;;;;;;5112499;28;20920;-82
2020/12/31 00:31:39;;;;;;;10.52;5.53;;;3.20;86.00;;;;;;5111718;28;20380;-82
2020/12/31 00:34:06;;;;;;;11.70;5.25;;;3.20;86.10;;;;;;5110866;28;20388;-82
2020/12/31 00:36:32;;;;;;;9.55;5.32;;;3.10;86.80;;;;;;5112371;28;20385;-81
2020/12/31 00:38:58;;;;;;;7.85;5.15;;;3.10;87.30;;;;;;5111793;28;20414;-81
2020/12/31 00:41:23;;;;;;;11.57;6.20;;;3.10;87.80;;;;;;5112778;28;20489;-82
2020/12/31 00:43:49;;;;;;;11.95;5.65;;;3.20;87.10;;;;;;5112576;28;20702;-82
2020/12/31 00:46:15;;;;;;;9.80;5.80;;;3.20;87.80;;;;;;5112717;28;20522;-81
2020/12/31 00:48:41;;;;;;;13.57;5.72;;;3.10;88.10;;;;;;5112054;28;20867;-81
2020/12/31 00:51:07;;;;;;;9.68;5.97;;;3.10;87.90;;;;;;5112329;28;20412;-80
2020/12/31 00:53:34;;;;;;;8.70;5.93;;;3.10;88.80;;;;;;5112384;28;20384;-80
2020/12/31 00:55:59;;;;;;;12.48;6.43;;;3.00;89.50;;;;;;5111774;28;20699;-80
2020/12/31 00:58:25;;;;;;;10.93;6.18;;;2.90;90.50;;;;;;5111421;28;20379;-80
2020/12/31 01:00:51;;;;;;;10.70;6.32;;;2.90;90.00;;;;;;5111375;28;20388;-80
2020/12/31 01:03:17;;;;;;;12.02;6.78;;;2.90;90.70;;;;;;5112462;28;20376;-80
2020/12/31 01:05:42;;;;;;;11.50;6.73;;;2.80;90.90;;;;;;5110885;28;20464;-80
2020/12/31 01:08:08;;;;;;;12.47;6.57;;;2.80;91.10;;;;;;5111654;28;20426;-79
2020/12/31 01:10:34;;;;;;;12.13;6.55;;;2.80;91.10;;;;;;5112289;28;20431;-79
2020/12/31 01:12:59;;;;;;;11.60;6.57;;;2.80;91.20;;;;;;5112418;28;20487;-79
2020/12/31 01:15:25;;;;;;;15.02;7.38;;;2.70;91.40;;;;;;5111516;28;20452;-78
2020/12/31 01:17:51;;;;;;;12.83;7.37;;;2.70;92.10;;;;;;5111791;28;20475;-78
2020/12/31 01:20:16;;;;;;;10.40;6.80;;;2.60;92.20;;;;;;5111838;28;20457;-78
2020/12/31 01:22:42;;;;;;;14.73;7.30;;;2.60;92.00;;;;;;5110523;28;20392;-78
2020/12/31 01:25:08;;;;;;;12.00;7.00;;;2.50;92.40;;;;;;5111926;28;20388;-78
2020/12/31 01:27:36;;;;;;;12.13;7.20;;;2.50;92.40;;;;;;5110855;28;20468;-78
2020/12/31 01:30:02;;;;;;;14.43;7.45;;;2.50;93.00;;;;;;5112142;28;20906;-78
2020/12/31 01:32:27;;;;;;;12.35;7.47;;;2.50;93.00;;;;;;5111829;28;20389;-78
2020/12/31 01:34:53;;;;;;;13.05;7.22;;;2.50;93.00;;;;;;5111895;28;20381;-78
2020/12/31 01:37:19;;;;;;;13.10;7.50;;;2.50;92.90;;;;;;5111428;28;20399;-78
2020/12/31 01:39:46;;;;;;;13.10;7.45;;;2.50;93.50;;;;;;5111752;28;20404;-78
2020/12/31 01:42:12;;;;;;;10.67;6.97;;;2.50;93.20;;;;;;5111652;28;20434;-78
2020/12/31 01:44:37;;;;;;;13.15;6.90;;;2.50;93.10;;;;;;5111921;28;20481;-78
2020/12/31 01:47:03;;;;;;;13.20;8.03;;;2.40;93.30;;;;;;5111273;28;20856;-78
2020/12/31 01:49:32;;;;;;;12.23;7.37;;;2.40;93.40;;;;;;5111429;28;20713;-78
2020/12/31 01:51:59;;;;;;;12.70;7.15;;;2.40;93.20;;;;;;5111572;28;20400;-78
2020/12/31 01:54:26;;;;;;;12.95;7.60;;;2.40;93.10;;;;;;5111131;28;20706;-78
2020/12/31 01:56:55;;;;;;;14.20;7.05;;;2.40;93.10;;;;;;5111350;28;20388;-78
2020/12/31 01:59:20;;;;;;;12.45;7.53;;;2.40;92.90;;;;;;5111107;28;20440;-78
2020/12/31 02:01:50;;;;;;;13.98;7.10;;;2.40;93.30;;;;;;5111304;28;20373;-79
2020/12/31 02:04:16;;;;;;;14.38;7.68;;;2.40;93.00;;;;;;5111243;28;20427;-78
2020/12/31 02:06:42;;;;;;;13.73;7.38;;;2.40;92.80;;;;;;5110934;28;20769;-79
2020/12/31 02:09:08;;;;;;;13.65;7.88;;;2.40;93.00;;;;;;5111059;28;20388;-79
2020/12/31 02:11:34;;;;;;;11.70;7.30;;;2.50;93.00;;;;;;5110828;28;20383;-79
2020/12/31 02:14:00;;;;;;;13.10;7.43;;;2.50;92.90;;;;;;5109806;28;20392;-79
2020/12/31 02:16:33;;;;;;;14.00;7.25;;;2.50;92.90;;;;;;5110167;28;20471;-78
2020/12/31 02:19:02;;;;;;;13.20;7.97;;;2.50;92.50;;;;;;5110834;28;20654;-78
2020/12/31 02:21:32;;;;;;;13.63;8.00;;;2.50;92.60;;;;;;5110159;28;20428;-78
2020/12/31 02:23:59;;;;;;;13.80;7.60;;;2.50;92.50;;;;;;5109672;28;20519;-78
2020/12/31 02:26:27;;;;;;;13.43;8.02;;;2.50;92.60;;;;;;5109247;28;20740;-78
2020/12/31 02:28:53;;;;;;;14.27;8.20;;;2.50;92.70;;;;;;5110465;28;20474;-78
2020/12/31 02:31:20;;;;;;;13.75;7.88;;;2.50;92.70;;;;;;5110146;28;20900;-78
2020/12/31 02:33:50;;;;;;;15.68;7.90;;;2.60;92.70;;;;;;5110761;28;20379;-78
2020/12/31 02:36:18;;;;;;;12.68;7.78;;;2.60;92.30;;;;;;5109159;28;20511;-78
2020/12/31 02:38:45;;;;;;;11.50;7.55;;;2.60;92.50;;;;;;5110255;28;20400;-78
2020/12/31 02:41:11;;;;;;;13.57;7.05;;;2.70;91.50;;;;;;5110933;28;20388;-78
2020/12/31 02:43:37;;;;;;;12.25;7.20;;;2.60;92.00;;;;;;5109009;28;20441;-78
2020/12/31 02:46:04;;;;;;;14.15;8.50;;;2.70;92.10;;;;;;5110092;28;20376;-78
2020/12/31 02:48:29;;;;;;;13.68;7.28;;;2.60;91.90;;;;;;5109935;28;20380;-78
2020/12/31 02:50:55;;;;;;;11.63;7.23;;;2.70;91.40;;;;;;5111010;28;20472;-78
2020/12/31 02:53:21;;;;;;;13.60;7.43;;;2.70;91.80;;;;;;5109991;28;20372;-78
2020/12/31 02:55:46;;;;;;;14.55;7.25;;;2.70;91.60;;;;;;5109227;28;20399;-78
2020/12/31 02:58:12;;;;;;;12.27;7.13;;;2.70;91.20;;;;;;5109733;28;20833;-78
2020/12/31 03:00:38;;;;;;;16.73;7.50;;;2.70;91.30;;;;;;5110827;28;20376;-77
2020/12/31 03:03:03;;;;;;;11.10;6.80;;;2.70;91.40;;;;;;5109611;28;20591;-78
2020/12/31 03:05:29;;;;;;;12.30;7.27;;;2.70;90.90;;;;;;5110411;28;20373;-78
2020/12/31 03:07:54;;;;;;;12.70;7.60;;;2.70;91.20;;;;;;5109613;28;20744;-78
2020/12/31 03:10:20;;;;;;;14.97;7.30;;;2.70;91.40;;;;;;5110278;28;20376;-78
2020/12/31 03:12:45;;;;;;;15.80;7.10;;;2.70;91.40;;;;;;5110166;28;20379;-79
2020/12/31 03:15:12;;;;;;;13.30;7.13;;;2.70;91.30;;;;;;5109638;28;20789;-79
2020/12/31 03:17:39;;;;;;;13.63;7.80;;;2.70;91.40;;;;;;5110002;28;20461;-79
2020/12/31 03:20:05;;;;;;;11.27;7.55;;;2.60;92.10;;;;;;5110116;28;20457;-79
2020/12/31 03:22:31;;;;;;;15.82;7.75;;;2.60;91.70;;;;;;5110401;28;20407;-79
2020/12/31 03:24:57;;;;;;;11.77;7.55;;;2.60;91.80;;;;;;5110941;28;20388;-79
2020/12/31 03:27:23;;;;;;;13.03;6.73;;;2.60;92.30;;;;;;5113574;28;21057;-79
2020/12/31 03:29:49;;;;;;;12.87;7.33;;;2.60;91.50;;;;;;5113932;28;20475;-78
2020/12/31 03:32:15;;;;;;;14.55;7.10;;;2.60;91.90;;;;;;5113823;28;20864;-78
2020/12/31 03:34:40;;;;;;;11.60;7.10;;;2.60;92.30;;;;;;5113813;28;20433;-78
2020/12/31 03:37:06;;;;;;;12.40;7.07;;;2.50;92.40;;;;;;5113662;28;20423;-80
2020/12/31 03:39:31;;;;;;;18.63;7.87;;;2.50;92.30;;;;;;5113736;28;20443;-80
2020/12/31 03:41:57;;;;;;;13.17;7.60;;;2.50;92.50;;;;;;5113860;28;20388;-80
2020/12/31 03:44:22;;;;;;;11.80;7.77;;;2.50;92.60;;;;;;5114064;28;20463;-80
2020/12/31 03:46:48;;;;;;;12.00;6.80;;;2.50;93.00;;;;;;5113234;28;20519;-79
2020/12/31 03:49:13;;;;;;;12.90;6.70;;;2.40;92.90;;;;;;5113942;28;20793;-79
2020/12/31 03:51:39;;;;;;;12.47;7.00;;;2.40;92.90;;;;;;5113667;28;20385;-79
2020/12/31 03:54:04;;;;;;;12.70;7.23;;;2.40;93.20;;;;;;5114037;28;20376;-79
2020/12/31 03:56:30;;;;;;;11.73;7.00;;;2.30;93.30;;;;;;5112984;28;20857;-79
2020/12/31 03:58:56;;;;;;;14.10;7.30;;;2.30;93.50;;;;;;5113356;28;20421;-79
2020/12/31 04:01:28;;;;;;;11.20;6.73;;;2.30;93.40;;;;;;5113025;28;20380;-79
2020/12/31 04:03:53;;;;;;;11.50;7.35;;;2.30;93.40;;;;;;5113728;28;20752;-79
2020/12/31 04:06:19;;;;;;;11.52;7.47;;;2.20;93.50;;;;;;5113081;28;20372;-79
2020/12/31 04:08:44;;;;;;;11.07;6.82;;;2.20;93.70;;;;;;5112901;28;20384;-79
2020/12/31 04:11:10;;;;;;;13.03;7.47;;;2.20;93.70;;;;;;5113066;28;20504;-79
2020/12/31 04:13:36;;;;;;;14.67;6.80;;;2.20;93.80;;;;;;5111912;28;20407;-79
2020/12/31 04:16:01;;;;;;;12.40;7.07;;;2.20;93.80;;;;;;5112165;28;20709;-79
2020/12/31 04:18:27;;;;;;;11.30;7.13;;;2.20;93.60;;;;;;5112394;28;20380;-79
2020/12/31 04:20:52;;;;;;;10.80;6.80;;;2.10;93.70;;;;;;5113396;28;20385;-79
2020/12/31 04:23:18;;;;;;;13.27;7.33;;;2.10;93.80;;;;;;5112892;28;20422;-79
2020/12/31 04:25:43;;;;;;;11.07;7.37;;;2.10;94.10;;;;;;5113044;28;20702;-79
2020/12/31 04:28:09;;;;;;;12.37;6.93;;;2.10;93.90;;;;;;5111203;28;20430;-79
2020/12/31 04:30:34;;;;;;;14.30;7.30;;;2.10;93.90;;;;;;5113339;28;20388;-79
2020/12/31 04:33:00;;;;;;;12.17;7.10;;;2.20;94.10;;;;;;5111585;28;20480;-80
2020/12/31 04:35:26;;;;;;;11.43;7.47;;;2.10;93.80;;;;;;5111794;28;20384;-79
2020/12/31 04:37:51;;;;;;;10.97;6.93;;;2.00;94.40;;;;;;5112180;28;20414;-79
2020/12/31 04:40:17;;;;;;;10.57;6.87;;;2.10;94.10;;;;;;5113309;28;20949;-79
2020/12/31 04:42:43;;;;;;;11.57;7.10;;;2.10;93.90;;;;;;5112978;28;20741;-78
2020/12/31 04:45:08;;;;;;;10.95;7.00;;;2.10;93.90;;;;;;5112887;28;20460;-79
2020/12/31 04:48:06;;;;;;;11.50;7.27;;;2.00;94.10;;;;;;5112832;28;20471;-78
2020/12/31 04:50:34;;;;;;;11.25;6.97;;;2.10;93.80;;;;;;5111927;28;20457;-79
2020/12/31 04:53:04;;;;;;;14.30;7.22;;;2.10;93.90;;;;;;5113039;28;20403;-79
2020/12/31 04:55:52;;;;;;;10.73;7.00;;;2.00;94.00;;;;;;5112553;28;20473;-79
2020/12/31 04:58:18;;;;;;;13.50;7.47;;;2.10;94.00;;;;;;5111372;28;20456;-79
2020/12/31 05:00:45;;;;;;;11.15;7.03;;;2.10;94.10;;;;;;5112279;28;21045;-79
2020/12/31 05:03:11;;;;;;;12.02;7.13;;;2.10;94.20;;;;;;5111236;28;20384;-79
2020/12/31 05:05:38;;;;;;;11.82;7.28;;;2.10;94.30;;;;;;5112334;28;20955;-76
2020/12/31 05:08:05;;;;;;;10.43;6.50;;;2.10;94.10;;;;;;5110770;28;20440;-79
2020/12/31 05:10:31;;;;;;;9.77;6.53;;;2.10;94.20;;;;;;5111789;28;20390;-79
2020/12/31 05:13:05;;;;;;;11.32;6.57;;;2.00;94.50;;;;;;5112523;28;20385;-79
2020/12/31 05:15:39;;;;;;;10.93;6.50;;;2.00;94.40;;;;;;5110826;28;20506;-79
2020/12/31 05:18:21;;;;;;;12.63;6.68;;;2.00;94.50;;;;;;5111982;28;20443;-79
2020/12/31 05:20:57;;;;;;;9.13;6.05;;;2.00;94.10;;;;;;5112115;28;20449;-79
2020/12/31 05:23:25;;;;;;;9.20;6.05;;;2.10;94.40;;;;;;5110947;28;21015;-79
2020/12/31 05:25:51;;;;;;;10.77;6.70;;;2.10;94.20;;;;;;5112062;28;20464;-79
2020/12/31 05:28:29;;;;;;;11.15;6.25;;;2.10;94.40;;;;;;5111360;28;20471;-79
2020/12/31 05:31:07;;;;;;;7.78;5.63;;;2.10;94.40;;;;;;5112242;28;20408;-79
2020/12/31 05:33:34;;;;;;;10.18;5.65;;;2.00;93.90;;;;;;5110508;28;20813;-79
2020/12/31 05:36:17;;;;;;;8.43;5.43;;;2.10;94.00;;;;;;5112069;28;20387;-79
2020/12/31 05:38:56;;;;;;;8.07;5.30;;;2.10;93.80;;;;;;5111181;28;20471;-79
2020/12/31 05:41:25;;;;;;;10.98;6.25;;;2.10;93.90;;;;;;5112246;28;20391;-79
2020/12/31 05:44:05;;;;;;;7.80;5.63;;;2.10;94.20;;;;;;5111087;28;20550;-79
2020/12/31 05:46:30;;;;;;;9.85;6.00;;;2.10;94.00;;;;;;5111251;28;20427;-79
2020/12/31 05:49:00;;;;;;;9.57;5.78;;;2.10;94.20;;;;;;5111212;28;20424;-79
2020/12/31 05:51:29;;;;;;;9.18;5.82;;;2.10;94.30;;;;;;5111256;28;20420;-79
2020/12/31 05:54:06;;;;;;;9.70;6.03;;;2.10;94.00;;;;;;5111510;28;20517;-79
2020/12/31 05:56:37;;;;;;;9.32;5.13;;;2.10;93.90;;;;;;5111055;28;20542;-79
2020/12/31 05:59:07;;;;;;;8.55;5.40;;;2.10;93.80;;;;;;5110134;28;20597;-79
2020/12/31 06:01:37;;;;;;;10.50;5.40;;;2.10;94.30;;;;;;5111099;28;20497;-79
2020/12/31 06:04:28;;;;;;;10.10;5.60;;;2.10;94.00;;;;;;5111412;28;20471;-79
2020/12/31 06:06:58;;;;;;;10.00;5.90;;;2.00;93.80;;;;;;5109353;28;20443;-79
2020/12/31 06:09:31;;;;;;;7.72;5.50;;;2.10;94.20;;;;;;5110985;28;20634;-79
2020/12/31 06:11:59;;;;;;;9.73;5.45;;;2.10;94.30;;;;;;5109899;28;20935;-80
2020/12/31 06:14:29;;;;;;;8.52;5.60;;;2.10;94.40;;;;;;5110816;28;20376;-80
2020/12/31 06:16:57;;;;;;;8.07;5.47;;;2.10;94.40;;;;;;5109686;28;20774;-79
2020/12/31 06:19:29;;;;;;;9.00;5.50;;;2.10;94.30;;;;;;5110741;28;20437;-80
2020/12/31 06:22:00;;;;;;;9.17;5.43;;;2.10;94.60;;;;;;5110933;28;20488;-79
2020/12/31 06:24:33;;;;;;;10.23;5.50;;;2.10;94.20;;;;;;5110681;28;20553;-79
2020/12/31 06:27:06;;;;;;;8.27;4.97;;;2.10;94.20;;;;;;5110208;28;20428;-80
2020/12/31 06:29:46;;;;;;;9.02;5.65;;;2.20;93.60;;;;;;5111071;28;20492;-80
2020/12/31 06:32:23;;;;;;;7.25;5.03;;;2.20;94.20;;;;;;5109276;28;20727;-80
2020/12/31 06:34:49;;;;;;;7.40;4.80;;;2.10;94.00;;;;;;5110944;28;20431;-80
2020/12/31 06:37:14;;;;;;;6.88;4.85;;;2.20;94.10;;;;;;5110442;28;20841;-80
2020/12/31 06:39:41;;;;;;;8.70;4.82;;;2.20;94.10;;;;;;5110867;28;20411;-80
2020/12/31 06:42:07;;;;;;;8.20;4.70;;;2.20;94.20;;;;;;5110445;28;20380;-79
2020/12/31 06:44:33;;;;;;;7.43;5.03;;;2.20;94.10;;;;;;5110881;28;20372;-79
2020/12/31 06:46:59;;;;;;;6.75;4.45;;;2.10;94.10;;;;;;5109993;28;20402;-79
2020/12/31 06:49:51;;;;;;;7.10;4.60;;;2.20;94.30;;;;;;5110573;28;20375;-79
2020/12/31 06:52:18;;;;;;;7.38;4.70;;;2.20;94.20;;;;;;5110878;28;20376;-79
2020/12/31 06:54:44;;;;;;;6.20;4.00;;;2.20;94.30;;;;;;5110491;28;20390;-79
2020/12/31 06:57:09;;;;;;;7.07;4.53;;;2.20;94.00;;;;;;5109956;28;20384;-79
2020/12/31 06:59:38;;;;;;;7.87;4.43;;;2.10;94.30;;;;;;5111902;28;20620;-79
2020/12/31 07:02:21;;;;;;;6.95;4.60;;;2.20;94.40;;;;;;5113355;28;20459;-79
2020/12/31 07:04:47;;;;;;;9.57;4.43;;;2.20;94.30;;;;;;5114505;28;20539;-79
2020/12/31 07:07:18;;;;;;;5.37;3.87;;;2.20;94.00;;;;;;5114029;28;20459;-79
2020/12/31 07:09:50;;;;;;;7.10;4.28;;;2.20;94.10;;;;;;5114666;28;20427;-79
2020/12/31 07:12:29;;;;;;;5.65;3.85;;;2.20;94.60;;;;;;5114339;28;20453;-79
2020/12/31 07:14:55;;;;;;;6.57;3.80;;;2.20;93.80;;;;;;5114536;28;20884;-79
2020/12/31 07:17:22;;;;;;;6.67;4.10;;;2.20;94.20;;;;;;5113576;28;20476;-79
2020/12/31 07:19:48;;;;;;;5.82;3.92;;;2.20;94.30;;;;;;5114340;28;20406;-79
2020/12/31 07:22:13;;;;;;;5.38;3.97;;;2.20;94.40;;;;;;5113967;28;20385;-79
2020/12/31 07:24:59;;;;;;;6.88;4.25;;;2.10;94.30;;;;;;5114834;28;20376;-79
2020/12/31 07:27:37;;;;;;;6.25;4.05;;;2.20;94.00;;;;;;5113531;28;20536;-79
2020/12/31 07:30:08;;;;;;;6.65;4.20;;;2.10;94.00;;;;;;5114070;28;20420;-79
2020/12/31 07:33:19;;;;;;;7.50;4.05;;;2.20;94.20;;;;;;5114305;28;20443;-79
2020/12/31 07:35:51;;;;;;;6.30;3.97;;;2.20;94.40;;;;;;5089622;28;20454;-79
2020/12/31 07:38:18;;;;;;;5.55;3.80;;;2.20;94.20;;;;;;5113754;28;20419;-79
2020/12/31 07:40:54;;;;;;;5.57;3.35;;;2.20;94.20;;;;;;5113564;28;20830;-79
2020/12/31 07:43:21;;;;;;;7.90;3.92;;;2.20;94.10;;;;;;5113709;28;20777;-79
2020/12/31 07:45:49;;;;;;;4.80;3.75;;;2.20;94.10;;;;;;5114200;28;20394;-79
2020/12/31 07:48:16;;;;;;;7.18;3.88;;;2.20;94.30;;;;;;5112955;28;20895;-79
2020/12/31 07:50:44;;;;;;;5.70;4.15;;;2.20;94.30;;;;;;5113851;28;20387;-79
2020/12/31 07:53:11;;;;;;;5.68;3.35;;;2.20;94.20;;;;;;5113361;28;20878;-79
2020/12/31 07:55:37;;;;;;;7.13;3.97;;;2.10;93.90;;;;;;5113842;28;20490;-79
2020/12/31 07:58:07;;;;;;;4.60;3.20;;;2.10;94.40;;;;;;5113058;28;20391;-79
2020/12/31 08:00:33;;;;;;;4.95;3.38;;;2.20;94.00;;;;;;5113656;28;20444;-79
2020/12/31 08:02:59;;;;;;;7.70;3.50;;;2.20;94.10;;;;;;5113483;28;20400;-79
2020/12/31 08:05:26;;;;;;;4.97;3.03;;;2.20;94.20;;;;;;5113456;28;20368;-79
2020/12/31 08:07:56;;;;;;;4.82;3.08;;;2.20;93.80;;;;;;5111644;28;20396;-79
2020/12/31 08:10:24;;;;;;;5.37;3.10;;;2.20;94.20;;;;;;5112443;28;20478;-79
2020/12/31 08:12:54;;;;;;;4.95;2.90;;;2.20;94.00;;;;;;5113080;28;20812;-80
2020/12/31 08:15:21;;;;;;;3.70;2.95;;;2.20;94.20;;;;;;5113224;28;20519;-79
2020/12/31 08:17:54;;;;;;;4.03;2.83;;;2.20;94.30;;;;;;5113134;28;20441;-79
2020/12/31 08:20:22;;;;;;;3.97;2.90;;;2.20;94.30;;;;;;5113273;28;20474;-80
2020/12/31 08:22:52;;;;;;;6.55;3.78;;;2.20;94.40;;;;;;5113325;28;20421;-80
2020/12/31 08:25:33;;;;;;;4.03;3.13;;;2.20;94.70;;;;;;5113117;28;20424;-80
2020/12/31 08:28:05;;;;;;;5.38;3.38;;;2.30;93.80;;;;;;5113239;28;20447;-80
2020/12/31 08:30:33;;;;;;;4.18;3.00;;;2.20;94.30;;;;;;5113275;28;20423;-80
2020/12/31 08:32:59;;;;;;;4.60;3.38;;;2.20;94.10;;;;;;5112195;28;20725;-80
2020/12/31 08:35:39;;;;;;;5.13;3.63;;;2.20;94.20;;;;;;5112423;28;20458;-79
2020/12/31 08:38:18;;;;;;;3.87;2.93;;;2.30;94.20;;;;;;5112471;28;20484;-79
2020/12/31 08:40:52;;;;;;;6.22;3.33;;;2.20;93.80;;;;;;5112270;28;20967;-80
2020/12/31 08:43:20;;;;;;;5.70;3.95;;;2.20;93.70;;;;;;5111014;28;20903;-80
2020/12/31 08:45:46;;;;;;;6.07;3.65;;;2.20;93.90;;;;;;5112310;28;20376;-80
2020/12/31 08:48:16;;;;;;;4.90;3.25;;;2.30;93.70;;;;;;5112246;28;20722;-80
2020/12/31 08:50:58;;;;;;;5.77;3.60;;;2.30;93.90;;;;;;5112416;28;20424;-80
2020/12/31 08:53:24;;;;;;;4.40;3.20;;;2.30;93.90;;;;;;5112725;28;20417;-80
2020/12/31 08:55:50;;;;;;;4.03;3.00;;;2.20;93.20;;;;;;5112244;28;20729;-80
2020/12/31 08:58:17;;;;;;;4.50;3.43;;;2.30;93.10;;;;;;5111969;28;20458;-80
2020/12/31 09:00:44;;;;;;;5.18;3.65;;;2.30;92.90;;;;;;5110796;28;20960;-80
2020/12/31 09:03:10;;;;;;;5.60;3.67;;;2.30;92.70;;;;;;5112525;28;20466;-80
2020/12/31 09:05:36;;;;;;;7.03;3.90;;;2.30;93.00;;;;;;5112177;28;20380;-80
2020/12/31 09:08:07;;;;;;;5.70;3.80;;;2.30;93.20;;;;;;5112011;28;20376;-80
2020/12/31 09:10:34;;;;;;;5.97;4.00;;;2.30;93.10;;;;;;5111817;28;20481;-80
2020/12/31 09:13:01;;;;;;;5.82;3.67;;;2.40;93.40;;;;;;5112268;28;20412;-81
2020/12/31 09:15:27;;;;;;;7.22;4.55;;;2.40;92.80;;;;;;5112251;28;20376;-80
2020/12/31 09:17:52;;;;;;;6.30;3.97;;;2.40;93.10;;;;;;5110222;28;20387;-80
2020/12/31 09:20:26;;;;;;;6.22;4.35;;;2.50;92.20;;;;;;5112084;28;20404;-80
2020/12/31 09:22:52;;;;;;;5.72;4.30;;;2.40;92.60;;;;;;5111212;28;20440;-80
2020/12/31 09:25:18;;;;;;;6.45;4.25;;;2.50;92.40;;;;;;5112100;28;20377;-80
2020/12/31 09:27:47;;;;;;;5.95;4.35;;;2.50;92.00;;;;;;5111319;28;20377;-81
2020/12/31 09:30:15;;;;;;;6.47;4.25;;;2.50;92.30;;;;;;5111482;28;20434;-81
2020/12/31 09:32:44;;;;;;;7.27;4.30;;;2.50;91.60;;;;;;5111573;28;20516;-81
2020/12/31 09:35:11;;;;;;;7.35;4.70;;;2.60;92.10;;;;;;5110444;28;20456;-80
2020/12/31 09:37:47;;;;;;;6.80;4.85;;;2.70;92.30;;;;;;5110870;28;20418;-80
2020/12/31 09:40:13;;;;;;;7.47;4.80;;;2.70;92.40;;;;;;5110114;28;20895;-80
2020/12/31 09:42:39;;;;;;;8.73;5.75;;;2.80;91.70;;;;;;5111663;28;20423;-81
2020/12/31 09:45:05;;;;;;;7.80;4.80;;;2.80;92.10;;;;;;5110024;28;20419;-80
2020/12/31 09:47:31;;;;;;;5.72;4.00;;;2.90;91.60;;;;;;5109907;28;20388;-81
2020/12/31 09:49:57;;;;;;;6.03;4.63;;;2.90;91.20;;;;;;5111287;28;20385;-80
2020/12/31 09:52:22;;;;;;;7.33;4.30;;;2.90;91.20;;;;;;5111604;28;20429;-80
2020/12/31 09:54:48;;;;;;;6.23;4.33;;;2.90;91.20;;;;;;5111085;28;20554;-80
2020/12/31 09:57:13;;;;;;;5.10;3.63;;;2.90;91.20;;;;;;5111327;28;20412;-80
2020/12/31 09:59:39;;;;;;;5.87;4.50;;;2.90;89.80;;;;;;5111073;28;20469;-81
2020/12/31 10:02:05;;;;;;;6.20;4.43;;;2.90;90.50;;;;;;5110040;28;20393;-81
2020/12/31 10:04:31;;;;;;;6.88;4.78;;;2.90;90.20;;;;;;5110314;28;20521;-81
2020/12/31 10:06:57;;;;;;;5.93;4.68;;;2.90;90.50;;;;;;5110781;28;20872;-81
2020/12/31 10:09:22;;;;;;;6.60;4.43;;;2.90;90.40;;;;;;5111485;28;20384;-81
2020/12/31 10:11:49;;;;;;;6.90;4.73;;;2.90;90.70;;;;;;5110748;28;20376;-81
2020/12/31 10:14:15;;;;;;;8.38;4.60;;;3.00;90.80;;;;;;5109799;28;20432;-81
2020/12/31 10:16:41;;;;;;;6.65;4.35;;;3.00;90.10;;;;;;5110602;28;20388;-81
2020/12/31 10:19:06;;;;;;;6.77;4.60;;;3.00;89.80;;;;;;5110979;28;20457;-81
2020/12/31 10:21:32;;;;;;;9.27;5.00;;;3.10;90.40;;;;;;5110879;28;20383;-81
2020/12/31 10:23:58;;;;;;;6.27;4.37;;;3.10;90.70;;;;;;5109898;28;20412;-81
2020/12/31 10:26:23;;;;;;;6.83;4.50;;;3.10;90.00;;;;;;5110879;28;20376;-81
2020/12/31 10:28:49;;;;;;;6.00;3.95;;;3.10;89.30;;;;;;5110416;28;20852;-81
2020/12/31 10:31:15;;;;;;;6.43;4.32;;;3.20;89.70;;;;;;5110594;28;20463;-80
2020/12/31 10:33:40;;;;;;;8.30;4.40;;;3.30;89.10;;;;;;5110254;28;20384;-81
2020/12/31 10:36:08;;;;;;;7.03;4.47;;;3.40;89.50;;;;;;5109559;28;20405;-83
2020/12/31 10:38:38;;;;;;;6.13;3.95;;;3.40;88.60;;;;;;5110702;28;20897;-81
2020/12/31 10:41:05;;;;;;;6.25;3.78;;;3.40;89.10;;;;;;5110785;28;20420;-81
2020/12/31 10:43:30;;;;;;;6.72;3.95;;;3.40;88.80;;;;;;5110456;28;20429;-81
2020/12/31 10:45:56;;;;;;;5.88;4.20;;;3.40;89.20;;;;;;5111223;28;20861;-81
2020/12/31 10:48:22;;;;;;;6.13;3.63;;;3.40;88.90;;;;;;5110755;28;20385;-81
2020/12/31 10:50:47;;;;;;;5.13;3.33;;;3.40;89.40;;;;;;5110783;28;20463;-81
2020/12/31 10:53:13;;;;;;;5.65;3.40;;;3.40;88.50;;;;;;5109360;28;20372;-81
2020/12/31 10:55:38;;;;;;;5.65;3.25;;;3.30;88.50;;;;;;5110065;28;20728;-82
2020/12/31 10:58:04;;;;;;;5.50;3.58;;;3.40;88.80;;;;;;5109270;28;20422;-83
2020/12/31 11:00:30;;;;;;;5.67;3.20;;;3.40;88.90;;;;;;5110869;28;20480;-81
2020/12/31 11:02:55;;;;;;;6.30;3.43;;;3.30;88.10;;;;;;5109609;28;20410;-81
2020/12/31 11:05:21;;;;;;;5.80;3.27;;;3.20;88.30;;;;;;5109562;28;20376;-81
2020/12/31 11:07:47;;;;;;;4.90;3.40;;;3.30;88.90;;;;;;5109923;28;20384;-81
2020/12/31 11:10:12;;;;;;;5.00;3.33;;;3.20;88.10;;;;;;5110445;28;20373;-81
2020/12/31 11:12:38;;;;;;;6.00;3.40;;;3.30;89.40;;;;;;5110709;28;20376;-81
2020/12/31 11:15:04;;;;;;;6.23;3.50;;;3.30;88.50;;;;;;5110249;28;20909;-81
2020/12/31 11:17:29;;;;;;;4.72;3.05;;;3.20;89.10;;;;;;5109777;28;20383;-80
2020/12/31 11:19:55;;;;;;;5.05;3.30;;;3.20;88.20;;;;;;5110295;28;20496;-80
2020/12/31 11:22:20;;;;;;;4.32;2.90;;;3.20;89.00;;;;;;5110840;28;20418;-80
2020/12/31 11:24:47;;;;;;;4.97;3.03;;;3.20;88.70;;;;;;5109052;28;20387;-80
2020/12/31 11:27:12;;;;;;;4.13;2.90;;;3.30;88.80;;;;;;5108714;28;20388;-81
2020/12/31 11:29:38;;;;;;;4.30;3.00;;;3.30;89.40;;;;;;5109803;28;20376;-80
2020/12/31 11:32:04;;;;;;;5.63;2.78;;;3.20;89.30;;;;;;5107410;28;20392;-81
2020/12/31 11:34:30;;;;;;;4.78;3.17;;;3.20;89.60;;;;;;5111282;28;20376;-81
2020/12/31 11:36:55;;;;;;;3.55;2.70;;;3.20;89.30;;;;;;5109075;28;20828;-81
2020/12/31 11:39:22;;;;;;;3.87;2.77;;;3.30;90.10;;;;;;5109248;28;20496;-80
2020/12/31 11:41:51;;;;;;;3.97;2.77;;;3.10;90.10;;;;;;5108917;28;20376;-80
2020/12/31 11:44:16;;;;;;;5.00;2.88;;;3.10;89.90;;;;;;5109577;28;20372;-81
2020/12/31 11:46:45;;;;;;;4.65;2.75;;;3.00;89.70;;;;;;5111006;28;20871;-81
2020/12/31 11:49:10;;;;;;;3.83;2.38;;;3.00;90.20;;;;;;5112613;28;20424;-80
2020/12/31 11:51:36;;;;;;;5.67;2.80;;;3.00;90.20;;;;;;5112429;28;20384;-80
2020/12/31 11:54:02;;;;;;;3.90;2.30;;;2.90;90.50;;;;;;5112028;28;20378;-81
2020/12/31 11:56:27;;;;;;;7.85;3.58;;;2.90;90.70;;;;;;5112851;28;20427;-80
2020/12/31 11:58:53;;;;;;;4.65;2.55;;;2.90;91.10;;;;;;5111317;28;20747;-81
2020/12/31 12:01:18;;;;;;;3.78;2.67;;;2.90;91.10;;;;;;5111498;28;20420;-80
2020/12/31 12:03:44;;;;;;;3.50;2.58;;;2.90;90.70;;;;;;5113256;28;20377;-81
2020/12/31 12:06:10;;;;;;;4.25;2.70;;;2.90;90.40;;;;;;5113254;28;20380;-80
2020/12/31 12:08:35;;;;;;;3.20;2.30;;;2.80;90.90;;;;;;5112644;28;20409;-81
2020/12/31 12:11:01;;;;;;;3.37;2.53;;;2.80;91.20;;;;;;5112022;28;20380;-80
2020/12/31 12:13:27;;;;;;;3.33;2.43;;;2.90;91.60;;;;;;5111618;28;20847;-81
2020/12/31 12:15:52;;;;;;;2.20;1.77;;;3.00;91.70;;;;;;5111943;28;20376;-82
2020/12/31 12:18:18;;;;;;;3.00;2.23;;;2.80;90.20;;;;;;5112570;28;20369;-81
2020/12/31 12:20:46;;;;;;;2.78;1.90;;;2.90;90.80;;;;;;5112298;28;20928;-80
2020/12/31 12:23:12;;;;;;;3.22;2.35;;;2.90;90.40;;;;;;5111599;28;20435;-80
2020/12/31 12:25:37;;;;;;;2.33;2.10;;;2.90;91.80;;;;;;5112880;28;20380;-80
2020/12/31 12:28:03;;;;;;;4.73;2.33;;;2.90;91.50;;;;;;5111521;28;20384;-80
2020/12/31 12:30:29;;;;;;;2.58;2.08;;;2.80;91.30;;;;;;5112620;28;20380;-81
2020/12/31 12:32:54;;;;;;;2.95;2.10;;;2.90;91.00;;;;;;5112297;28;20369;-81
2020/12/31 12:35:20;;;;;;;3.63;2.20;;;2.80;90.80;;;;;;5112972;28;20368;-81
2020/12/31 12:37:46;;;;;;;3.20;2.10;;;2.90;91.10;;;;;;5111801;28;20423;-81
2020/12/31 12:40:11;;;;;;;2.35;1.83;;;2.90;91.20;;;;;;5112674;28;20408;-80
2020/12/31 12:42:37;;;;;;;4.10;2.10;;;2.90;90.90;;;;;;5112642;28;20875;-80
2020/12/31 12:45:07;;;;;;;2.80;2.20;;;2.90;91.60;;;;;;5112629;28;20469;-80
2020/12/31 12:47:36;;;;;;;3.63;1.90;;;2.90;91.80;;;;;;5112181;28;20417;-80
2020/12/31 12:50:04;;;;;;;2.90;1.85;;;2.90;91.20;;;;;;5111088;28;20935;-80
2020/12/31 12:52:30;;;;;;;3.20;2.03;;;2.90;90.50;;;;;;5112707;28;20894;-80
2020/12/31 12:54:56;;;;;;;2.60;1.97;;;3.00;91.80;;;;;;5112285;28;20371;-81